createdAt,value
2018-12-19T00:00:08.254Z,42.60
2018-12-19T00:01:08.225Z,41.80
2018-12-19T00:02:08.183Z,40.90
2018-12-19T00:03:08.147Z,41.40
2018-12-19T00:04:08.108Z,43.10
2018-12-19T00:05:08.072Z,43.80
2018-12-19T00:06:08.035Z,39.30
2018-12-19T00:07:08.001Z,41.90
2018-12-19T00:08:07.962Z,41.00
2018-12-19T00:09:07.925Z,43.50
2018-12-19T00:10:07.888Z,41.00
2018-12-19T00:11:07.854Z,40.40
2018-12-19T00:12:07.818Z,41.00
2018-12-19T00:13:07.778Z,40.70
2018-12-19T00:14:07.742Z,39.50
2018-12-19T00:15:07.705Z,39.10
2018-12-19T00:16:07.669Z,37.20
2018-12-19T00:17:07.630Z,40.00
2018-12-19T00:18:07.595Z,39.70
2018-12-19T00:19:07.558Z,37.10
2018-12-19T00:20:07.522Z,38.70
2018-12-19T00:21:07.484Z,36.60
2018-12-19T00:22:07.449Z,37.90
2018-12-19T00:23:07.413Z,37.70
2018-12-19T00:24:07.374Z,36.10
2018-12-19T00:25:07.338Z,38.90
2018-12-19T00:26:07.302Z,38.40
2018-12-19T00:27:07.264Z,38.00
2018-12-19T00:28:07.226Z,37.00
2018-12-19T00:29:07.191Z,38.60
2018-12-19T00:30:07.156Z,38.30
2018-12-19T00:31:07.117Z,39.30
2018-12-19T00:32:07.080Z,37.80
2018-12-19T00:33:07.045Z,36.00
2018-12-19T00:34:07.007Z,36.90
2018-12-19T00:35:06.971Z,38.00
2018-12-19T00:36:06.933Z,38.10
2018-12-19T00:37:06.897Z,37.60
2018-12-19T00:38:06.860Z,37.30
2018-12-19T00:39:09.667Z,36.70
2018-12-19T00:40:06.786Z,37.40
2018-12-19T00:41:06.750Z,36.40
2018-12-19T00:42:06.716Z,36.50
2018-12-19T00:43:06.676Z,37.20
2018-12-19T00:44:06.639Z,36.60
2018-12-19T00:45:06.602Z,38.10
2018-12-19T00:46:06.636Z,37.60
2018-12-19T00:47:06.530Z,36.90
2018-12-19T00:48:06.493Z,36.40
2018-12-19T00:49:06.456Z,35.90
2018-12-19T00:50:06.421Z,37.20
2018-12-19T00:51:06.383Z,36.30
2018-12-19T00:52:06.345Z,37.10
2018-12-19T00:53:06.310Z,36.50
2018-12-19T00:54:06.273Z,36.00
2018-12-19T00:55:06.236Z,36.20
2018-12-19T00:56:06.199Z,37.60
2018-12-19T00:57:06.162Z,36.00
2018-12-19T00:58:06.125Z,35.20
2018-12-19T00:59:06.088Z,35.80
2018-12-19T01:00:06.055Z,36.60
2018-12-19T01:01:06.017Z,37.50
2018-12-19T01:02:05.978Z,37.60
2018-12-19T01:03:05.947Z,37.20
2018-12-19T01:04:05.904Z,35.60
2018-12-19T01:05:05.867Z,35.80
2018-12-19T01:06:05.832Z,37.00
2018-12-19T01:07:05.795Z,36.60
2018-12-19T01:08:05.760Z,36.30
2018-12-19T01:09:05.721Z,37.20
2018-12-19T01:10:05.683Z,36.90
2018-12-19T01:11:05.653Z,36.00
2018-12-19T01:12:05.610Z,36.30
2018-12-19T01:13:05.574Z,35.80
2018-12-19T01:14:05.536Z,35.40
2018-12-19T01:15:05.502Z,37.80
2018-12-19T01:16:05.462Z,37.50
2018-12-19T01:17:05.426Z,37.40
2018-12-19T01:18:05.390Z,39.30
2018-12-19T01:19:05.353Z,38.30
2018-12-19T01:20:05.318Z,37.90
2018-12-19T01:21:05.283Z,38.10
2018-12-19T01:22:05.242Z,38.50
2018-12-19T01:23:05.206Z,39.30
2018-12-19T01:24:05.168Z,37.60
2018-12-19T01:25:05.131Z,37.50
2018-12-19T01:26:05.104Z,38.20
2018-12-19T01:27:05.059Z,37.60
2018-12-19T01:28:05.021Z,40.20
2018-12-19T01:29:04.984Z,37.80
2018-12-19T01:30:04.950Z,39.50
2018-12-19T01:31:04.912Z,39.00
2018-12-19T01:32:04.873Z,39.40
2018-12-19T01:33:04.868Z,37.50
2018-12-19T01:34:04.802Z,39.20
2018-12-19T01:35:04.763Z,40.30
2018-12-19T01:36:04.726Z,39.90
2018-12-19T01:37:04.690Z,38.80
2018-12-19T01:38:04.652Z,38.00
2018-12-19T01:39:04.617Z,38.40
2018-12-19T01:40:04.578Z,39.40
2018-12-19T01:41:04.541Z,38.50
2018-12-19T01:42:04.505Z,38.10
2018-12-19T01:43:04.470Z,38.80
2018-12-19T01:44:04.431Z,38.20
2018-12-19T01:45:04.394Z,38.40
2018-12-19T01:46:04.356Z,36.70
2018-12-19T01:47:04.321Z,39.50
2018-12-19T01:48:04.282Z,37.40
2018-12-19T01:49:04.247Z,41.10
2018-12-19T01:50:04.216Z,39.50
2018-12-19T01:51:04.176Z,39.90
2018-12-19T01:52:04.135Z,36.70
2018-12-19T01:53:04.098Z,39.10
2018-12-19T01:54:04.061Z,40.10
2018-12-19T01:55:04.025Z,36.90
2018-12-19T01:56:03.988Z,38.60
2018-12-19T01:57:03.955Z,39.80
2018-12-19T01:58:03.914Z,38.90
2018-12-19T01:59:03.878Z,39.80
2018-12-19T02:00:03.840Z,39.20
2018-12-19T02:01:03.802Z,38.70
2018-12-19T02:02:03.765Z,37.70
2018-12-19T02:03:03.730Z,40.00
2018-12-19T02:04:03.692Z,38.20
2018-12-19T02:05:03.654Z,39.40
2018-12-19T02:06:03.618Z,38.00
2018-12-19T02:07:03.583Z,40.00
2018-12-19T02:08:03.542Z,41.40
2018-12-19T02:09:03.507Z,41.10
2018-12-19T02:10:03.470Z,39.90
2018-12-19T02:11:03.435Z,40.60
2018-12-19T02:12:03.395Z,40.10
2018-12-19T02:13:03.359Z,40.30
2018-12-19T02:14:03.324Z,39.30
2018-12-19T02:15:03.285Z,39.70
2018-12-19T02:16:03.249Z,38.10
2018-12-19T02:17:03.211Z,40.10
2018-12-19T02:18:03.174Z,39.70
2018-12-19T02:19:03.137Z,40.60
2018-12-19T02:20:03.099Z,39.00
2018-12-19T02:21:03.064Z,39.50
2018-12-19T02:22:03.026Z,39.90
2018-12-19T02:23:02.990Z,41.10
2018-12-19T02:24:02.951Z,40.20
2018-12-19T02:25:02.916Z,38.00
2018-12-19T02:26:02.879Z,37.90
2018-12-19T02:27:02.841Z,38.70
2018-12-19T02:28:02.804Z,40.70
2018-12-19T02:29:02.767Z,38.70
2018-12-19T02:30:02.749Z,38.40
2018-12-19T02:31:02.695Z,39.70
2018-12-19T02:32:02.657Z,39.90
2018-12-19T02:33:02.620Z,39.20
2018-12-19T02:34:02.583Z,39.20
2018-12-19T02:35:02.550Z,38.40
2018-12-19T02:36:02.508Z,37.60
2018-12-19T02:37:02.472Z,39.10
2018-12-19T02:38:02.434Z,39.40
2018-12-19T02:39:02.396Z,38.40
2018-12-19T02:40:02.363Z,40.80
2018-12-19T02:41:02.333Z,40.50
2018-12-19T02:42:02.290Z,39.90
2018-12-19T02:43:02.342Z,40.00
2018-12-19T02:44:02.213Z,42.50
2018-12-19T02:45:02.177Z,39.30
2018-12-19T02:46:02.144Z,41.60
2018-12-19T02:47:02.102Z,40.60
2018-12-19T02:48:02.063Z,40.10
2018-12-19T02:49:02.027Z,42.00
2018-12-19T02:50:02.182Z,39.00
2018-12-19T02:51:01.955Z,37.00
2018-12-19T02:52:01.917Z,40.50
2018-12-19T02:53:01.880Z,40.30
2018-12-19T02:54:01.842Z,40.30
2018-12-19T02:55:01.806Z,41.60
2018-12-19T02:56:01.769Z,40.60
2018-12-19T02:57:01.732Z,41.30
2018-12-19T02:58:01.693Z,40.70
2018-12-19T02:59:01.659Z,39.40
2018-12-19T03:00:01.624Z,40.80
2018-12-19T03:01:01.583Z,40.20
2018-12-19T03:02:01.547Z,39.90
2018-12-19T03:03:01.514Z,42.00
2018-12-19T03:04:01.481Z,39.70
2018-12-19T03:05:01.437Z,40.40
2018-12-19T03:06:01.408Z,42.30
2018-12-19T03:07:01.360Z,41.60
2018-12-19T03:08:01.323Z,41.10
2018-12-19T03:09:01.287Z,42.00
2018-12-19T03:10:01.251Z,43.60
2018-12-19T03:11:01.213Z,42.40
2018-12-19T03:12:01.179Z,45.00
2018-12-19T03:13:01.138Z,44.20
2018-12-19T03:14:01.103Z,46.20
2018-12-19T03:15:01.071Z,44.00
2018-12-19T03:16:01.026Z,44.50
2018-12-19T03:17:00.996Z,45.70
2018-12-19T03:18:00.954Z,46.60
2018-12-19T03:19:00.917Z,45.80
2018-12-19T03:20:00.884Z,45.20
2018-12-19T03:21:00.842Z,45.80
2018-12-19T03:22:00.807Z,44.10
2018-12-19T03:23:00.774Z,45.70
2018-12-19T03:24:00.734Z,45.20
2018-12-19T03:25:00.697Z,42.80
2018-12-19T03:26:00.660Z,44.80
2018-12-19T03:27:00.622Z,46.30
2018-12-19T03:28:00.586Z,45.40
2018-12-19T03:29:00.549Z,45.10
2018-12-19T03:30:00.666Z,47.50
2018-12-19T03:31:00.477Z,45.70
2018-12-19T03:32:00.439Z,46.60
2018-12-19T03:33:00.402Z,46.60
2018-12-19T03:34:00.366Z,43.40
2018-12-19T03:35:00.330Z,45.80
2018-12-19T03:36:00.397Z,46.90
2018-12-19T03:37:00.256Z,47.40
2018-12-19T03:38:00.219Z,48.90
2018-12-19T03:39:00.181Z,49.20
2018-12-19T03:40:00.147Z,46.20
2018-12-19T03:41:00.107Z,43.60
2018-12-19T03:42:00.072Z,45.10
2018-12-19T03:43:00.033Z,44.90
2018-12-19T03:43:59.995Z,45.50
2018-12-19T03:44:59.958Z,47.40
2018-12-19T03:45:59.921Z,44.70
2018-12-19T03:46:59.885Z,44.90
2018-12-19T03:47:59.847Z,47.50
2018-12-19T03:48:59.811Z,46.20
2018-12-19T03:49:59.776Z,45.80
2018-12-19T03:50:59.737Z,47.90
2018-12-19T03:51:59.701Z,46.90
2018-12-19T03:52:59.665Z,44.80
2018-12-19T03:53:59.626Z,46.30
2018-12-19T03:54:59.590Z,48.10
2018-12-19T03:55:59.552Z,47.80
2018-12-19T03:56:59.516Z,48.80
2018-12-19T03:57:59.481Z,48.40
2018-12-19T03:58:59.444Z,48.50
2018-12-19T03:59:59.407Z,46.60
2018-12-19T04:00:59.372Z,46.50
2018-12-19T04:01:59.333Z,47.10
2018-12-19T04:02:59.297Z,46.00
2018-12-19T04:03:59.259Z,47.40
2018-12-19T04:04:59.226Z,45.50
2018-12-19T04:05:59.186Z,44.40
2018-12-19T04:06:59.150Z,45.10
2018-12-19T04:07:59.115Z,46.30
2018-12-19T04:08:59.076Z,46.90
2018-12-19T04:09:59.041Z,41.10
2018-12-19T04:10:59.002Z,42.90
2018-12-19T04:11:58.965Z,44.30
2018-12-19T04:12:58.930Z,43.70
2018-12-19T04:13:58.893Z,43.80
2018-12-19T04:14:58.859Z,43.70
2018-12-19T04:15:58.823Z,45.60
2018-12-19T04:16:58.783Z,43.80
2018-12-19T04:17:58.745Z,42.10
2018-12-19T04:18:58.715Z,46.00
2018-12-19T04:19:58.672Z,46.50
2018-12-19T04:20:58.634Z,45.40
2018-12-19T04:21:58.602Z,43.30
2018-12-19T04:22:58.563Z,44.10
2018-12-19T04:23:58.527Z,44.10
2018-12-19T04:24:58.488Z,45.10
2018-12-19T04:25:58.456Z,46.20
2018-12-19T04:26:58.416Z,46.30
2018-12-19T04:27:58.378Z,43.70
2018-12-19T04:28:58.344Z,45.10
2018-12-19T04:29:58.305Z,44.30
2018-12-19T04:30:58.271Z,45.30
2018-12-19T04:31:58.232Z,45.20
2018-12-19T04:32:58.197Z,46.20
2018-12-19T04:33:58.157Z,46.70
2018-12-19T04:34:58.125Z,44.20
2018-12-19T04:35:58.084Z,44.50
2018-12-19T04:36:58.048Z,45.30
2018-12-19T04:37:58.012Z,43.50
2018-12-19T04:38:57.976Z,46.00
2018-12-19T04:40:05.143Z,44.00
2018-12-19T04:40:57.904Z,43.40
2018-12-19T04:41:57.865Z,44.20
2018-12-19T04:42:57.831Z,43.90
2018-12-19T04:43:57.791Z,46.70
2018-12-19T04:44:57.763Z,45.40
2018-12-19T04:45:57.719Z,46.30
2018-12-19T04:46:57.682Z,47.20
2018-12-19T04:47:57.644Z,45.90
2018-12-19T04:48:57.608Z,46.00
2018-12-19T04:49:57.572Z,46.70
2018-12-19T04:50:57.535Z,47.70
2018-12-19T04:51:57.499Z,45.30
2018-12-19T04:52:57.462Z,44.90
2018-12-19T04:53:57.426Z,43.70
2018-12-19T04:54:57.389Z,43.60
2018-12-19T04:55:57.353Z,45.10
2018-12-19T04:56:57.316Z,44.90
2018-12-19T04:57:57.280Z,42.60
2018-12-19T04:58:57.242Z,43.40
2018-12-19T04:59:57.206Z,42.20
2018-12-19T05:00:57.171Z,43.80
2018-12-19T05:01:57.132Z,43.00
2018-12-19T05:02:57.097Z,42.30
2018-12-19T05:03:57.058Z,43.20
2018-12-19T05:04:57.023Z,43.80
2018-12-19T05:05:56.989Z,43.70
2018-12-19T05:06:56.951Z,45.40
2018-12-19T05:07:56.912Z,44.80
2018-12-19T05:08:56.876Z,42.40
2018-12-19T05:09:56.838Z,42.50
2018-12-19T05:10:56.804Z,41.60
2018-12-19T05:11:56.766Z,41.30
2018-12-19T05:12:56.729Z,42.90
2018-12-19T05:13:56.694Z,43.20
2018-12-19T05:14:56.657Z,40.40
2018-12-19T05:15:56.621Z,41.30
2018-12-19T05:16:56.588Z,39.80
2018-12-19T05:17:56.547Z,40.30
2018-12-19T05:18:56.511Z,40.40
2018-12-19T05:19:56.481Z,41.40
2018-12-19T05:20:56.440Z,40.30
2018-12-19T05:21:56.401Z,40.70
2018-12-19T05:22:56.364Z,38.60
2018-12-19T05:23:56.326Z,39.70
2018-12-19T05:24:56.292Z,36.90
2018-12-19T05:25:56.254Z,38.50
2018-12-19T05:26:56.218Z,37.60
2018-12-19T05:27:56.182Z,38.20
2018-12-19T05:28:56.145Z,38.70
2018-12-19T05:29:56.110Z,38.00
2018-12-19T05:30:56.073Z,39.90
2018-12-19T05:31:56.035Z,38.40
2018-12-19T05:32:56.000Z,38.10
2018-12-19T05:33:55.964Z,38.40
2018-12-19T05:34:55.928Z,38.20
2018-12-19T05:35:55.889Z,38.80
2018-12-19T05:36:55.853Z,38.40
2018-12-19T05:37:55.816Z,39.10
2018-12-19T05:38:55.781Z,37.60
2018-12-19T05:39:55.744Z,35.00
2018-12-19T05:40:55.706Z,39.50
2018-12-19T05:41:55.670Z,38.30
2018-12-19T05:42:55.635Z,37.10
2018-12-19T05:43:55.596Z,35.50
2018-12-19T05:44:55.562Z,37.70
2018-12-19T05:45:55.524Z,35.20
2018-12-19T05:46:55.488Z,36.20
2018-12-19T05:47:55.452Z,38.90
2018-12-19T05:48:55.414Z,37.60
2018-12-19T05:49:55.379Z,37.50
2018-12-19T05:50:55.343Z,36.10
2018-12-19T05:51:55.304Z,36.10
2018-12-19T05:52:55.268Z,36.70
2018-12-19T05:53:55.232Z,35.70
2018-12-19T05:54:55.199Z,34.50
2018-12-19T05:55:55.159Z,36.50
2018-12-19T05:56:55.123Z,36.70
2018-12-19T05:57:55.086Z,34.90
2018-12-19T05:58:55.052Z,33.00
2018-12-19T05:59:55.013Z,34.80
2018-12-19T06:00:54.977Z,32.90
2018-12-19T06:01:54.940Z,34.30
2018-12-19T06:02:54.903Z,33.30
2018-12-19T06:03:54.866Z,33.60
2018-12-19T06:04:54.830Z,32.60
2018-12-19T06:05:54.794Z,32.20
2018-12-19T06:06:54.815Z,32.30
2018-12-19T06:07:54.720Z,30.00
2018-12-19T06:08:54.686Z,31.50
2018-12-19T06:09:54.647Z,32.00
2018-12-19T06:10:54.610Z,30.70
2018-12-19T06:11:54.573Z,31.80
2018-12-19T06:12:54.537Z,30.80
2018-12-19T06:13:54.501Z,28.10
2018-12-19T06:14:54.467Z,30.30
2018-12-19T06:15:54.427Z,30.70
2018-12-19T06:16:54.391Z,29.60
2018-12-19T06:17:54.358Z,28.60
2018-12-19T06:18:54.320Z,30.10
2018-12-19T06:19:54.283Z,28.70
2018-12-19T06:20:54.246Z,31.00
2018-12-19T06:21:54.212Z,29.40
2018-12-19T06:22:54.173Z,31.30
2018-12-19T06:23:54.136Z,29.80
2018-12-19T06:24:54.099Z,28.70
2018-12-19T06:25:54.064Z,30.00
2018-12-19T06:26:54.027Z,31.20
2018-12-19T06:27:53.991Z,28.90
2018-12-19T06:28:53.955Z,27.60
2018-12-19T06:29:53.918Z,28.90
2018-12-19T06:30:53.883Z,30.20
2018-12-19T06:31:53.846Z,29.10
2018-12-19T06:32:53.809Z,27.60
2018-12-19T06:33:53.773Z,28.20
2018-12-19T06:34:53.740Z,29.60
2018-12-19T06:35:53.701Z,29.10
2018-12-19T06:36:53.667Z,28.90
2018-12-19T06:37:53.632Z,30.30
2018-12-19T06:38:53.596Z,30.10
2018-12-19T06:39:53.556Z,29.20
2018-12-19T06:40:53.521Z,29.20
2018-12-19T06:41:53.484Z,28.20
2018-12-19T06:42:53.451Z,29.30
2018-12-19T06:43:53.412Z,29.00
2018-12-19T06:44:53.377Z,28.70
2018-12-19T06:45:53.340Z,29.30
2018-12-19T06:46:53.307Z,27.90
2018-12-19T06:47:53.267Z,28.50
2018-12-19T06:48:53.231Z,29.00
2018-12-19T06:49:53.195Z,29.80
2018-12-19T06:50:53.160Z,28.10
2018-12-19T06:51:53.125Z,30.00
2018-12-19T06:52:53.087Z,28.80
2018-12-19T06:53:53.052Z,29.00
2018-12-19T06:54:53.016Z,28.70
2018-12-19T06:55:52.978Z,28.80
2018-12-19T06:56:52.944Z,28.20
2018-12-19T06:57:52.908Z,28.20
2018-12-19T06:58:52.871Z,28.00
2018-12-19T06:59:52.864Z,29.10
2018-12-19T07:00:52.799Z,27.30
2018-12-19T07:01:52.764Z,29.30
2018-12-19T07:02:52.727Z,27.90
2018-12-19T07:03:52.690Z,27.90
2018-12-19T07:04:52.656Z,28.50
2018-12-19T07:05:52.621Z,25.30
2018-12-19T07:06:52.587Z,28.20
2018-12-19T07:07:52.547Z,28.30
2018-12-19T07:08:52.512Z,27.90
2018-12-19T07:09:52.476Z,28.60
2018-12-19T07:10:52.442Z,27.70
2018-12-19T07:11:52.406Z,28.90
2018-12-19T07:12:52.369Z,29.60
2018-12-19T07:13:52.331Z,29.90
2018-12-19T07:14:52.297Z,27.00
2018-12-19T07:15:52.258Z,27.60
2018-12-19T07:16:52.223Z,26.40
2018-12-19T07:17:52.189Z,27.00
2018-12-19T07:18:52.152Z,27.30
2018-12-19T07:19:52.123Z,26.80
2018-12-19T07:20:52.081Z,27.70
2018-12-19T07:21:52.044Z,31.40
2018-12-19T07:22:52.014Z,27.20
2018-12-19T07:23:51.972Z,30.20
2018-12-19T07:24:51.941Z,28.50
2018-12-19T07:25:51.907Z,26.90
2018-12-19T07:26:51.865Z,29.40
2018-12-19T07:27:51.832Z,29.90
2018-12-19T07:28:51.794Z,29.10
2018-12-19T07:29:51.757Z,28.90
2018-12-19T07:30:51.723Z,29.70
2018-12-19T07:31:51.685Z,28.60
2018-12-19T07:32:51.650Z,26.50
2018-12-19T07:33:51.618Z,26.10
2018-12-19T07:34:51.579Z,26.80
2018-12-19T07:35:51.543Z,30.70
2018-12-19T07:36:51.507Z,30.00
2018-12-19T07:37:51.471Z,27.60
2018-12-19T07:38:51.436Z,28.30
2018-12-19T07:39:51.399Z,28.80
2018-12-19T07:40:51.367Z,27.90
2018-12-19T07:41:51.329Z,28.20
2018-12-19T07:42:51.297Z,28.50
2018-12-19T07:43:51.258Z,26.80
2018-12-19T07:44:51.220Z,24.90
2018-12-19T07:45:51.187Z,24.80
2018-12-19T07:46:51.218Z,22.60
2018-12-19T07:47:51.115Z,23.40
2018-12-19T07:48:51.081Z,26.10
2018-12-19T07:49:51.043Z,25.90
2018-12-19T07:50:51.009Z,26.90
2018-12-19T07:51:50.971Z,24.90
2018-12-19T07:52:50.935Z,27.20
2018-12-19T07:53:50.900Z,26.90
2018-12-19T07:54:50.865Z,24.00
2018-12-19T07:55:50.828Z,23.10
2018-12-19T07:56:50.792Z,22.80
2018-12-19T07:57:50.757Z,23.60
2018-12-19T07:58:50.722Z,23.10
2018-12-19T07:59:50.685Z,23.10
2018-12-19T08:00:50.651Z,23.50
2018-12-19T08:01:50.615Z,22.60
2018-12-19T08:02:50.579Z,23.10
2018-12-19T08:03:50.542Z,21.00
2018-12-19T08:04:50.511Z,21.90
2018-12-19T08:05:50.472Z,21.90
2018-12-19T08:06:50.442Z,21.90
2018-12-19T08:07:50.401Z,22.50
2018-12-19T08:08:50.363Z,21.40
2018-12-19T08:09:50.329Z,21.80
2018-12-19T08:10:52.378Z,21.10
2018-12-19T08:11:50.257Z,22.00
2018-12-19T08:12:50.221Z,22.00
2018-12-19T08:13:50.185Z,21.40
2018-12-19T08:14:50.150Z,22.10
2018-12-19T08:15:50.115Z,22.30
2018-12-19T08:16:50.078Z,22.10
2018-12-19T08:17:50.042Z,22.00
2018-12-19T08:18:50.008Z,22.40
2018-12-19T08:19:49.971Z,21.40
2018-12-19T08:20:49.937Z,20.90
2018-12-19T08:21:49.901Z,21.10
2018-12-19T08:22:49.866Z,21.90
2018-12-19T08:23:49.829Z,21.20
2018-12-19T08:24:49.793Z,21.90
2018-12-19T08:25:49.758Z,21.60
2018-12-19T08:26:49.723Z,21.40
2018-12-19T08:27:49.686Z,21.10
2018-12-19T08:28:49.651Z,22.20
2018-12-19T08:29:49.616Z,20.70
2018-12-19T08:30:49.580Z,21.20
2018-12-19T08:31:49.543Z,22.10
2018-12-19T08:32:49.510Z,20.00
2018-12-19T08:33:49.472Z,21.10
2018-12-19T08:34:49.436Z,21.80
2018-12-19T08:35:49.401Z,20.60
2018-12-19T08:36:49.365Z,21.40
2018-12-19T08:37:49.331Z,21.50
2018-12-19T08:38:49.296Z,19.50
2018-12-19T08:39:49.258Z,20.90
2018-12-19T08:40:49.225Z,20.20
2018-12-19T08:41:49.188Z,21.30
2018-12-19T08:42:49.152Z,19.60
2018-12-19T08:43:49.115Z,20.50
2018-12-19T08:44:49.081Z,19.60
2018-12-19T08:45:49.045Z,21.90
2018-12-19T08:46:49.011Z,20.20
2018-12-19T08:47:48.975Z,21.20
2018-12-19T08:48:48.940Z,21.60
2018-12-19T08:49:48.903Z,20.90
2018-12-19T08:50:48.868Z,19.90
2018-12-19T08:51:48.832Z,20.70
2018-12-19T08:52:48.796Z,20.60
2018-12-19T08:53:48.762Z,20.50
2018-12-19T08:54:48.726Z,20.50
2018-12-19T08:55:48.689Z,19.40
2018-12-19T08:56:48.656Z,21.60
2018-12-19T08:57:48.620Z,25.30
2018-12-19T08:58:48.583Z,25.10
2018-12-19T08:59:48.548Z,21.00
2018-12-19T09:00:48.514Z,20.20
2018-12-19T09:01:48.478Z,20.60
2018-12-19T09:02:48.442Z,20.60
2018-12-19T09:03:48.406Z,22.10
2018-12-19T09:04:48.371Z,19.00
2018-12-19T09:05:48.336Z,18.80
2018-12-19T09:06:48.303Z,18.60
2018-12-19T09:07:48.264Z,19.20
2018-12-19T09:08:48.231Z,18.80
2018-12-19T09:09:48.196Z,19.00
2018-12-19T09:10:48.159Z,19.20
2018-12-19T09:11:48.124Z,18.80
2018-12-19T09:12:48.088Z,18.60
2018-12-19T09:13:48.053Z,18.70
2018-12-19T09:14:48.021Z,17.60
2018-12-19T09:15:47.982Z,18.30
2018-12-19T09:16:47.947Z,18.30
2018-12-19T09:17:47.913Z,17.50
2018-12-19T09:18:47.877Z,18.70
2018-12-19T09:19:47.843Z,17.80
2018-12-19T09:20:47.805Z,17.90
2018-12-19T09:21:47.772Z,18.60
2018-12-19T09:22:47.737Z,17.30
2018-12-19T09:23:47.699Z,17.80
2018-12-19T09:24:47.664Z,18.20
2018-12-19T09:25:47.630Z,17.60
2018-12-19T09:26:47.644Z,17.50
2018-12-19T09:27:47.559Z,18.70
2018-12-19T09:28:47.525Z,18.30
2018-12-19T09:29:47.489Z,18.20
2018-12-19T09:30:47.452Z,16.90
2018-12-19T09:31:47.418Z,17.20
2018-12-19T09:32:47.383Z,17.30
2018-12-19T09:33:47.347Z,17.60
2018-12-19T09:34:47.314Z,16.50
2018-12-19T09:35:47.278Z,16.50
2018-12-19T09:36:47.241Z,17.60
2018-12-19T09:37:47.207Z,16.00
2018-12-19T09:38:47.171Z,16.10
2018-12-19T09:39:47.137Z,15.50
2018-12-19T09:40:47.101Z,16.90
2018-12-19T09:41:47.066Z,17.10
2018-12-19T09:42:47.033Z,16.80
2018-12-19T09:43:46.996Z,16.50
2018-12-19T09:44:46.961Z,17.60
2018-12-19T09:45:46.927Z,14.90
2018-12-19T09:46:46.891Z,15.50
2018-12-19T09:47:46.855Z,14.90
2018-12-19T09:48:46.821Z,16.70
2018-12-19T09:49:46.786Z,14.80
2018-12-19T09:50:46.750Z,16.50
2018-12-19T09:51:46.715Z,15.00
2018-12-19T09:52:46.682Z,15.70
2018-12-19T09:53:46.645Z,16.80
2018-12-19T09:54:46.611Z,16.50
2018-12-19T09:55:46.576Z,16.80
2018-12-19T09:56:46.541Z,14.90
2018-12-19T09:57:46.505Z,15.10
2018-12-19T09:58:46.471Z,16.20
2018-12-19T09:59:46.435Z,15.30
2018-12-19T10:00:46.401Z,16.00
2018-12-19T10:01:46.365Z,15.90
2018-12-19T10:02:46.331Z,15.70
2018-12-19T10:03:46.295Z,16.30
2018-12-19T10:04:46.262Z,16.80
2018-12-19T10:05:46.226Z,17.20
2018-12-19T10:06:46.191Z,16.10
2018-12-19T10:07:46.156Z,17.20
2018-12-19T10:08:46.121Z,15.70
2018-12-19T10:09:46.086Z,15.50
2018-12-19T10:10:46.052Z,15.80
2018-12-19T10:11:46.016Z,16.40
2018-12-19T10:12:45.980Z,16.10
2018-12-19T10:13:45.945Z,16.30
2018-12-19T10:14:45.911Z,16.40
2018-12-19T10:15:45.882Z,16.40
2018-12-19T10:16:45.841Z,15.70
2018-12-19T10:17:45.806Z,16.90
2018-12-19T10:18:45.771Z,15.80
2018-12-19T10:19:45.735Z,16.50
2018-12-19T10:20:45.702Z,15.60
2018-12-19T10:21:45.667Z,16.50
2018-12-19T10:22:45.632Z,16.60
2018-12-19T10:23:45.597Z,15.30
2018-12-19T10:24:45.561Z,15.90
2018-12-19T10:25:45.527Z,15.70
2018-12-19T10:26:45.492Z,16.40
2018-12-19T10:27:45.458Z,16.50
2018-12-19T10:28:45.421Z,16.30
2018-12-19T10:29:45.387Z,17.40
2018-12-19T10:30:45.352Z,16.60
2018-12-19T10:31:45.317Z,16.50
2018-12-19T10:32:45.283Z,16.90
2018-12-19T10:33:45.249Z,20.20
2018-12-19T10:34:45.214Z,22.70
2018-12-19T10:35:45.178Z,17.20
2018-12-19T10:36:45.144Z,20.10
2018-12-19T10:37:45.110Z,26.00
2018-12-19T10:38:45.075Z,16.50
2018-12-19T10:39:45.045Z,18.00
2018-12-19T10:40:45.720Z,61.50
2018-12-19T10:41:44.970Z,26.00
2018-12-19T10:42:44.935Z,21.40
2018-12-19T10:43:44.900Z,19.90
2018-12-19T10:44:44.867Z,20.60
2018-12-19T10:45:44.833Z,20.10
2018-12-19T10:46:44.802Z,17.70
2018-12-19T10:47:44.763Z,19.80
2018-12-19T10:48:44.727Z,18.30
2018-12-19T10:49:44.694Z,18.80
2018-12-19T10:50:44.659Z,16.90
2018-12-19T10:51:44.623Z,17.20
2018-12-19T10:52:44.588Z,16.20
2018-12-19T10:53:44.555Z,16.80
2018-12-19T10:54:44.519Z,18.20
2018-12-19T10:55:44.484Z,16.60
2018-12-19T10:56:44.450Z,17.30
2018-12-19T10:57:44.418Z,17.20
2018-12-19T10:58:44.381Z,17.20
2018-12-19T10:59:44.347Z,16.70
2018-12-19T11:00:44.314Z,16.60
2018-12-19T11:01:44.277Z,17.70
2018-12-19T11:02:44.243Z,18.50
2018-12-19T11:03:44.210Z,17.80
2018-12-19T11:04:44.173Z,21.30
2018-12-19T11:05:44.138Z,18.80
2018-12-19T11:06:44.104Z,17.90
2018-12-19T11:07:44.069Z,18.50
2018-12-19T11:08:44.084Z,18.00
2018-12-19T11:09:44.001Z,17.20
2018-12-19T11:10:45.172Z,23.10
2018-12-19T11:11:43.930Z,18.90
2018-12-19T11:12:43.896Z,22.90
2018-12-19T11:13:43.862Z,17.90
2018-12-19T11:14:43.832Z,18.70
2018-12-19T11:15:43.790Z,18.70
2018-12-19T11:16:44.819Z,18.30
2018-12-19T11:17:43.722Z,19.40
2018-12-19T11:18:43.687Z,18.00
2018-12-19T11:19:43.652Z,19.10
2018-12-19T11:20:43.617Z,20.90
2018-12-19T11:21:43.590Z,23.20
2018-12-19T11:22:43.548Z,21.30
2018-12-19T11:23:43.513Z,26.20
2018-12-19T11:24:43.478Z,22.80
2018-12-19T11:25:43.444Z,21.70
2018-12-19T11:26:43.410Z,21.70
2018-12-19T11:27:43.373Z,21.40
2018-12-19T11:28:43.339Z,26.70
2018-12-19T11:29:43.306Z,19.80
2018-12-19T11:30:43.269Z,21.00
2018-12-19T11:31:43.234Z,22.30
2018-12-19T11:32:43.201Z,21.10
2018-12-19T11:33:43.165Z,20.80
2018-12-19T11:34:43.130Z,21.60
2018-12-19T11:35:43.100Z,21.20
2018-12-19T11:36:43.062Z,20.90
2018-12-19T11:37:43.025Z,21.40
2018-12-19T11:38:42.991Z,20.50
2018-12-19T11:39:42.955Z,19.80
2018-12-19T11:40:42.922Z,21.40
2018-12-19T11:41:42.885Z,21.90
2018-12-19T11:42:42.851Z,21.70
2018-12-19T11:43:42.816Z,21.40
2018-12-19T11:44:42.787Z,20.20
2018-12-19T11:45:42.746Z,20.90
2018-12-19T11:46:42.711Z,20.70
2018-12-19T11:47:42.677Z,24.20
2018-12-19T11:48:42.663Z,22.10
2018-12-19T11:49:42.610Z,22.10
2018-12-19T11:50:42.574Z,21.60
2018-12-19T11:51:42.538Z,23.10
2018-12-19T11:52:42.505Z,21.20
2018-12-19T11:53:42.467Z,21.10
2018-12-19T11:54:42.434Z,21.50
2018-12-19T11:55:42.397Z,22.60
2018-12-19T11:56:42.363Z,22.10
2018-12-19T11:57:42.329Z,20.40
2018-12-19T11:58:42.293Z,23.00
2018-12-19T11:59:42.257Z,22.80
2018-12-19T12:00:42.223Z,21.60
2018-12-19T12:01:42.192Z,21.80
2018-12-19T12:02:42.155Z,21.80
2018-12-19T12:03:42.118Z,21.10
2018-12-19T12:04:42.083Z,21.60
2018-12-19T12:05:42.049Z,22.80
2018-12-19T12:06:42.015Z,22.50
2018-12-19T12:07:41.979Z,21.70
2018-12-19T12:08:41.943Z,21.80
2018-12-19T12:09:41.910Z,21.50
2018-12-19T12:10:41.876Z,22.00
2018-12-19T12:11:45.591Z,23.10
2018-12-19T12:12:41.806Z,22.80
2018-12-19T12:13:42.673Z,21.80
2018-12-19T12:14:41.792Z,22.10
2018-12-19T12:15:41.700Z,22.70
2018-12-19T12:16:41.666Z,22.90
2018-12-19T12:17:41.630Z,22.70
2018-12-19T12:18:41.596Z,22.60
2018-12-19T12:19:41.559Z,22.40
2018-12-19T12:20:41.526Z,23.30
2018-12-19T12:21:41.491Z,23.80
2018-12-19T12:22:41.458Z,22.50
2018-12-19T12:23:47.147Z,24.10
2018-12-19T12:24:41.388Z,22.20
2018-12-19T12:25:41.355Z,22.60
2018-12-19T12:26:41.318Z,21.50
2018-12-19T12:27:41.282Z,22.20
2018-12-19T12:28:41.248Z,22.70
2018-12-19T12:29:41.213Z,23.50
2018-12-19T12:30:41.179Z,22.30
2018-12-19T12:31:41.145Z,23.30
2018-12-19T12:32:41.114Z,22.90
2018-12-19T12:33:41.074Z,22.20
2018-12-19T12:34:41.040Z,23.50
2018-12-19T12:35:41.004Z,22.70
2018-12-19T12:36:40.971Z,24.20
2018-12-19T12:37:40.935Z,23.40
2018-12-19T12:38:40.901Z,23.40
2018-12-19T12:39:40.868Z,22.20
2018-12-19T12:40:40.830Z,22.90
2018-12-19T12:41:40.797Z,22.70
2018-12-19T12:42:40.762Z,22.70
2018-12-19T12:43:40.727Z,22.50
2018-12-19T12:44:40.692Z,20.60
2018-12-19T12:45:40.660Z,22.20
2018-12-19T12:46:40.625Z,22.40
2018-12-19T12:47:40.595Z,21.80
2018-12-19T12:48:40.553Z,22.50
2018-12-19T12:49:40.519Z,22.50
2018-12-19T12:50:40.486Z,24.00
2018-12-19T12:51:40.450Z,23.80